createdAt,value
2023-04-12T00:00:07.624Z,18
2023-04-12T00:02:07.787Z,18
2023-04-12T00:04:07.969Z,18
2023-04-12T00:06:07.964Z,17
2023-04-12T00:08:08.088Z,16
2023-04-12T00:10:08.202Z,15
2023-04-12T00:12:08.273Z,14
2023-04-12T00:14:08.404Z,15
2023-04-12T00:16:08.538Z,14
2023-04-12T00:18:08.606Z,15
2023-04-12T00:20:08.722Z,15
2023-04-12T00:22:08.838Z,16
2023-04-12T00:24:08.988Z,15
2023-04-12T00:26:09.093Z,15
2023-04-12T00:28:09.199Z,16
2023-04-12T00:30:09.252Z,16
2023-04-12T00:32:09.312Z,15
2023-04-12T00:34:09.487Z,16
2023-04-12T00:36:09.562Z,16
2023-04-12T00:38:09.627Z,17
2023-04-12T00:40:09.864Z,16
2023-04-12T00:42:09.835Z,16
2023-04-12T00:44:10.028Z,16
2023-04-12T00:46:10.103Z,17
2023-04-12T00:48:10.129Z,30
2023-04-12T00:50:10.286Z,25
2023-04-12T00:54:10.508Z,23
2023-04-12T00:56:10.628Z,26
2023-04-12T00:58:10.700Z,26
2023-04-12T01:00:10.802Z,26
2023-04-12T01:02:11.018Z,25
2023-04-12T01:04:11.183Z,28
2023-04-12T01:06:11.115Z,28
2023-04-12T01:08:11.230Z,28
2023-04-12T01:10:11.317Z,30
2023-04-12T01:12:11.394Z,29
2023-04-12T01:14:11.532Z,26
2023-04-12T01:16:11.633Z,24
2023-04-12T01:18:11.709Z,22
2023-04-12T01:20:11.837Z,21
2023-04-12T01:22:11.981Z,21
2023-04-12T01:24:12.097Z,18
2023-04-12T01:26:12.141Z,18
2023-04-12T01:28:12.235Z,22
2023-04-12T01:32:12.362Z,23
2023-04-12T01:34:12.504Z,23
2023-04-12T01:36:12.645Z,23
2023-04-12T01:38:12.715Z,22
2023-04-12T01:40:12.785Z,22
2023-04-12T01:42:12.883Z,21
2023-04-12T01:44:13.008Z,21
2023-04-12T01:46:13.187Z,21
2023-04-12T01:48:13.317Z,23
2023-04-12T01:50:13.268Z,23
2023-04-12T01:52:13.387Z,22
2023-04-12T01:54:13.508Z,21
2023-04-12T01:56:13.572Z,20
2023-04-12T01:58:13.687Z,20
2023-04-12T02:00:13.788Z,20
2023-04-12T02:02:14.020Z,18
2023-04-12T02:04:14.073Z,14
2023-04-12T02:06:14.086Z,14
2023-04-12T02:08:14.169Z,14
2023-04-12T02:10:14.309Z,13
2023-04-12T02:12:14.371Z,12
2023-04-12T02:14:14.502Z,13
2023-04-12T02:16:14.605Z,13
2023-04-12T02:18:14.668Z,13
2023-04-12T02:20:14.794Z,12
2023-04-12T02:22:14.896Z,12
2023-04-12T02:24:15.008Z,12
2023-04-12T02:26:15.088Z,13
2023-04-12T02:28:15.204Z,12
2023-04-12T02:30:15.283Z,12
2023-04-12T02:32:15.716Z,12
2023-04-12T02:34:15.488Z,12
2023-04-12T02:36:15.620Z,12
2023-04-12T02:40:15.764Z,12
2023-04-12T02:42:16.021Z,11
2023-04-12T02:44:15.969Z,11
2023-04-12T02:46:16.159Z,11
2023-04-12T02:48:16.257Z,11
2023-04-12T02:50:16.277Z,11
2023-04-12T02:52:16.351Z,11
2023-04-12T02:54:16.454Z,11
2023-04-12T02:56:16.553Z,11
2023-04-12T02:58:16.666Z,11
2023-04-12T03:00:16.755Z,11
2023-04-12T03:02:16.874Z,11
2023-04-12T03:04:17.072Z,11
2023-04-12T03:08:17.097Z,11
2023-04-12T03:10:17.171Z,11
2023-04-12T03:12:17.304Z,11
2023-04-12T03:14:17.359Z,12
2023-04-12T03:16:17.498Z,11
2023-04-12T03:18:17.501Z,12
2023-04-12T03:20:17.716Z,12
2023-04-12T03:22:17.691Z,13
2023-04-12T03:24:17.831Z,13
2023-04-12T03:26:17.883Z,12
2023-04-12T03:28:18.041Z,12
2023-04-12T03:32:18.161Z,10
2023-04-12T03:34:18.214Z,11
2023-04-12T03:36:18.502Z,10
2023-04-12T03:38:18.539Z,11
2023-04-12T03:40:18.500Z,10
2023-04-12T03:42:29.427Z,10
2023-04-12T03:44:18.696Z,9
2023-04-12T03:46:18.810Z,9
2023-04-12T03:48:18.870Z,8
2023-04-12T03:50:18.993Z,7
2023-04-12T03:54:19.181Z,8
2023-04-12T03:56:19.235Z,8
2023-04-12T03:58:19.323Z,8
2023-04-12T04:00:19.433Z,8
2023-04-12T04:02:19.580Z,7
2023-04-12T04:04:19.802Z,7
2023-04-12T04:06:19.658Z,7
2023-04-12T04:08:19.866Z,8
2023-04-12T04:10:19.989Z,8
2023-04-12T04:12:19.914Z,8
2023-04-12T04:14:20.238Z,8
2023-04-12T04:16:20.136Z,8
2023-04-12T04:18:20.194Z,8
2023-04-12T04:20:20.280Z,8
2023-04-12T04:22:20.356Z,8
2023-04-12T04:24:20.414Z,8
2023-04-12T04:26:20.530Z,7
2023-04-12T04:28:20.600Z,6
2023-04-12T04:30:20.724Z,6
2023-04-12T04:32:20.849Z,6
2023-04-12T04:34:20.891Z,12
2023-04-12T04:36:20.981Z,9
2023-04-12T04:38:51.097Z,12
2023-04-12T04:40:51.319Z,11
2023-04-12T04:42:51.342Z,10
2023-04-12T04:44:51.485Z,12
2023-04-12T04:46:51.590Z,15
2023-04-12T04:48:51.703Z,20
2023-04-12T04:50:51.812Z,17
2023-04-12T04:52:51.912Z,13
2023-04-12T04:54:52.091Z,14
2023-04-12T04:56:52.456Z,13
2023-04-12T04:58:53.988Z,12
2023-04-12T05:00:52.449Z,10
2023-04-12T05:02:52.617Z,10
2023-04-12T05:04:52.631Z,9
2023-04-12T05:06:52.792Z,7
2023-04-12T05:08:52.880Z,8
2023-04-12T05:10:52.995Z,7
2023-04-12T05:12:53.114Z,7
2023-04-12T05:15:01.250Z,6
2023-04-12T05:16:53.356Z,6
2023-04-12T05:18:53.483Z,9
2023-04-12T05:20:53.554Z,15
2023-04-12T05:22:53.695Z,10
2023-04-12T05:24:53.882Z,10
2023-04-12T05:26:53.897Z,20
2023-04-12T05:28:53.997Z,51
2023-04-12T05:30:54.169Z,102
2023-04-12T05:32:54.251Z,132
2023-04-12T05:34:54.330Z,108
2023-04-12T05:36:54.481Z,99
2023-04-12T05:38:54.788Z,54
2023-04-12T05:40:54.681Z,62
2023-04-12T05:42:54.827Z,37
2023-04-12T05:44:55.081Z,26
2023-04-12T05:46:55.049Z,36
2023-04-12T05:48:55.275Z,34
2023-04-12T05:50:55.232Z,28
2023-04-12T05:52:55.323Z,22
2023-04-12T05:54:55.447Z,9
2023-04-12T05:56:55.529Z,8
2023-04-12T05:58:55.946Z,9
2023-04-12T06:00:55.839Z,7
2023-04-12T06:02:55.867Z,9
2023-04-12T06:04:56.075Z,8
2023-04-12T06:06:56.095Z,7
2023-04-12T06:08:56.412Z,6
2023-04-12T06:10:56.304Z,6
2023-04-12T06:12:56.436Z,5
2023-04-12T06:14:56.521Z,4
2023-04-12T06:16:56.626Z,4
2023-04-12T06:18:56.971Z,4
2023-04-12T06:20:56.821Z,5
2023-04-12T06:22:56.963Z,4
2023-04-12T06:24:57.042Z,4
2023-04-12T06:26:57.178Z,5
2023-04-12T06:28:57.429Z,3
2023-04-12T06:30:57.491Z,5
2023-04-12T06:32:57.511Z,10
2023-04-12T06:34:57.600Z,8
2023-04-12T06:36:57.697Z,4
2023-04-12T06:38:58.082Z,3
2023-04-12T06:40:57.975Z,4
2023-04-12T06:42:58.052Z,4
2023-04-12T06:46:58.278Z,4
2023-04-12T06:50:58.435Z,5
2023-04-12T06:52:58.560Z,6
2023-04-12T06:54:58.673Z,6
2023-04-12T06:56:58.733Z,5
2023-04-12T06:58:59.124Z,4
2023-04-12T07:00:59.050Z,4
2023-04-12T07:02:59.250Z,3
2023-04-12T07:04:59.225Z,3
2023-04-12T07:06:59.231Z,2
2023-04-12T07:08:59.672Z,4
2023-04-12T07:11:03.867Z,3
2023-04-12T07:12:59.545Z,3
2023-04-12T07:16:59.757Z,4
2023-04-12T07:19:00.195Z,3
2023-04-12T07:20:59.949Z,4
2023-04-12T07:23:00.053Z,3
2023-04-12T07:25:00.162Z,3
2023-04-12T07:27:00.259Z,3
2023-04-12T07:29:00.347Z,3
2023-04-12T07:31:00.450Z,3
2023-04-12T07:33:12.379Z,3
2023-04-12T07:35:00.662Z,3
2023-04-12T07:37:00.766Z,4
2023-04-12T07:39:00.896Z,5
2023-04-12T07:41:00.965Z,4
2023-04-12T07:43:01.032Z,4
2023-04-12T07:47:01.259Z,3
2023-04-12T07:51:01.449Z,3
2023-04-12T07:53:01.578Z,4
2023-04-12T07:55:01.638Z,6
2023-04-12T07:57:01.773Z,7
2023-04-12T07:59:01.854Z,7
2023-04-12T08:01:02.069Z,7
2023-04-12T08:03:02.313Z,4
2023-04-12T08:05:02.196Z,7
2023-04-12T08:07:02.290Z,7
2023-04-12T08:09:02.316Z,4
2023-04-12T08:11:02.395Z,4
2023-04-12T08:13:02.514Z,3
2023-04-12T08:15:02.605Z,3
2023-04-12T08:17:02.698Z,6
2023-04-12T08:19:02.778Z,4
2023-04-12T08:21:02.880Z,3
2023-04-12T08:23:02.983Z,3
2023-04-12T08:25:03.044Z,3
2023-04-12T08:27:03.141Z,4
2023-04-12T08:29:03.227Z,4
2023-04-12T08:31:03.354Z,4
2023-04-12T08:33:03.414Z,5
2023-04-12T08:35:03.492Z,5
2023-04-12T08:37:03.583Z,4
2023-04-12T08:39:03.638Z,3
2023-04-12T08:41:03.695Z,4
2023-04-12T08:43:03.823Z,3
2023-04-12T08:45:03.889Z,3
2023-04-12T08:47:04.001Z,3
2023-04-12T08:49:04.121Z,3
2023-04-12T08:51:04.175Z,4
2023-04-12T08:53:04.257Z,4
2023-04-12T08:55:04.332Z,3
2023-04-12T08:57:04.421Z,2
2023-04-12T08:59:04.541Z,2
2023-04-12T09:01:04.609Z,4
2023-04-12T09:03:04.805Z,8
2023-04-12T09:05:05.089Z,5
2023-04-12T09:07:04.876Z,3
2023-04-12T09:09:06.774Z,2
2023-04-12T09:11:05.058Z,2
2023-04-12T09:15:05.156Z,2
2023-04-12T09:17:05.359Z,16
2023-04-12T09:19:05.323Z,11
2023-04-12T09:21:35.485Z,47
2023-04-12T09:23:35.603Z,16
2023-04-12T09:25:35.695Z,5
2023-04-12T09:27:35.801Z,4
2023-04-12T09:29:35.917Z,27
2023-04-12T09:31:36.114Z,52
2023-04-12T09:33:36.157Z,62
2023-04-12T09:35:36.292Z,6
2023-04-12T09:37:36.394Z,10
2023-04-12T09:39:38.257Z,12
2023-04-12T09:41:36.626Z,4
2023-04-12T09:43:36.712Z,73
2023-04-12T09:45:36.820Z,12
2023-04-12T09:47:36.957Z,9
2023-04-12T09:49:37.043Z,4
2023-04-12T09:51:37.132Z,5
2023-04-12T09:53:37.272Z,3
2023-04-12T09:55:37.348Z,4
2023-04-12T09:57:37.445Z,2
2023-04-12T09:59:37.574Z,16
2023-04-12T10:01:37.755Z,5
2023-04-12T10:03:37.877Z,4
2023-04-12T10:05:38.007Z,7
2023-04-12T10:07:37.990Z,9
2023-04-12T10:09:38.128Z,4
2023-04-12T10:11:38.264Z,24
2023-04-12T10:13:38.346Z,33
2023-04-12T10:15:38.472Z,16
2023-04-12T10:17:38.631Z,5
2023-04-12T10:19:38.723Z,26
2023-04-12T10:21:38.799Z,13
2023-04-12T10:23:38.903Z,30
2023-04-12T10:25:39.026Z,18
2023-04-12T10:27:39.152Z,82
2023-04-12T10:29:39.209Z,50
2023-04-12T10:31:39.483Z,5
2023-04-12T10:33:39.536Z,3
2023-04-12T10:35:39.606Z,6
2023-04-12T10:37:39.646Z,6
2023-04-12T10:39:39.740Z,6
2023-04-12T10:41:39.848Z,7
2023-04-12T10:43:39.926Z,7
2023-04-12T10:45:40.035Z,3
2023-04-12T10:47:40.164Z,3
2023-04-12T10:49:40.308Z,4
2023-04-12T10:51:40.529Z,5
2023-04-12T10:53:40.411Z,2
2023-04-12T10:55:40.515Z,4
2023-04-12T10:57:40.613Z,3
2023-04-12T10:59:47.633Z,3
2023-04-12T11:01:41.057Z,4
2023-04-12T11:03:41.048Z,4
2023-04-12T11:05:41.018Z,6
2023-04-12T11:07:41.056Z,4
2023-04-12T11:09:41.147Z,4
2023-04-12T11:11:41.267Z,3
2023-04-12T11:13:41.347Z,6
2023-04-12T11:15:41.452Z,6
2023-04-12T11:17:41.592Z,6
2023-04-12T11:19:41.666Z,3
2023-04-12T11:21:41.709Z,2
2023-04-12T11:23:41.842Z,5
2023-04-12T11:25:41.928Z,4
2023-04-12T11:31:42.223Z,5
2023-04-12T11:33:42.337Z,4
2023-04-12T11:35:42.385Z,5
2023-04-12T11:37:42.465Z,5
2023-04-12T11:39:42.646Z,3
2023-04-12T11:41:42.657Z,2
2023-04-12T11:43:42.733Z,2
2023-04-12T11:45:42.821Z,3
2023-04-12T11:47:42.958Z,2
2023-04-12T11:49:42.985Z,2
2023-04-12T11:51:43.079Z,2
2023-04-12T11:53:43.161Z,2
2023-04-12T11:55:43.276Z,4
2023-04-12T11:57:43.362Z,2
2023-04-12T11:59:43.440Z,2
2023-04-12T12:01:43.629Z,1
2023-04-12T12:03:43.840Z,2
2023-04-12T12:05:43.883Z,2
2023-04-12T12:07:43.847Z,1
2023-04-12T12:10:24.174Z,2
2023-04-12T12:12:14.063Z,2
2023-04-12T12:14:14.147Z,2
2023-04-12T12:16:14.266Z,3
2023-04-12T12:18:14.430Z,3
2023-04-12T12:20:14.517Z,1
2023-04-12T12:22:14.625Z,5
2023-04-12T12:24:14.789Z,3
2023-04-12T12:26:19.342Z,16
2023-04-12T12:28:15.030Z,15
2023-04-12T12:30:15.090Z,8
2023-04-12T12:32:15.184Z,3
2023-04-12T12:34:15.297Z,3
2023-04-12T12:36:15.437Z,3
2023-04-12T12:38:15.495Z,9
2023-04-12T12:40:15.648Z,3
2023-04-12T12:42:15.732Z,3
2023-04-12T12:44:15.808Z,2
2023-04-12T12:46:15.926Z,10
2023-04-12T12:48:16.105Z,3
2023-04-12T12:50:16.155Z,4
2023-04-12T12:52:18.003Z,11
2023-04-12T12:54:25.168Z,5
2023-04-12T12:56:16.473Z,6
2023-04-12T12:58:16.552Z,4
2023-04-12T13:00:16.661Z,5
2023-04-12T13:02:16.918Z,5
2023-04-12T13:04:16.945Z,4
2023-04-12T13:06:17.145Z,3
2023-04-12T13:08:17.121Z,3
2023-04-12T13:10:17.181Z,3
2023-04-12T13:12:17.279Z,2
2023-04-12T13:14:17.415Z,3
2023-04-12T13:16:17.548Z,3
2023-04-12T13:18:17.585Z,4
2023-04-12T13:20:17.716Z,4
2023-04-12T13:22:17.830Z,3
2023-04-12T13:24:17.911Z,3
2023-04-12T13:26:18.022Z,3
2023-04-12T13:28:18.119Z,4
2023-04-12T13:30:18.230Z,4
2023-04-12T13:32:18.388Z,5
2023-04-12T13:34:18.439Z,11
2023-04-12T13:36:18.544Z,3
2023-04-12T13:38:18.635Z,12
2023-04-12T13:40:18.799Z,8
2023-04-12T13:42:18.955Z,14
2023-04-12T13:44:18.926Z,4
2023-04-12T13:46:19.120Z,6
2023-04-12T13:48:19.168Z,7
2023-04-12T13:50:19.254Z,8
2023-04-12T13:52:19.340Z,4
2023-04-12T13:54:19.435Z,3
2023-04-12T13:56:19.504Z,2
2023-04-12T13:58:19.608Z,6
2023-04-12T14:00:19.760Z,159
2023-04-12T14:02:19.992Z,7
2023-04-12T14:04:19.933Z,29
2023-04-12T14:06:19.955Z,3
2023-04-12T14:08:20.076Z,7
2023-04-12T14:10:20.138Z,4
2023-04-12T14:12:20.217Z,11
2023-04-12T14:14:20.372Z,5
2023-04-12T14:16:20.442Z,3
2023-04-12T14:18:20.537Z,4
2023-04-12T14:20:20.645Z,3
2023-04-12T14:22:20.717Z,2
2023-04-12T14:24:20.773Z,3
2023-04-12T14:26:20.843Z,3
2023-04-12T14:28:20.953Z,2
2023-04-12T14:34:21.375Z,2
2023-04-12T14:36:21.370Z,2
2023-04-12T14:38:21.405Z,3
2023-04-12T14:40:21.493Z,4
2023-04-12T14:42:21.572Z,3
2023-04-12T14:44:23.829Z,2
2023-04-12T14:46:51.853Z,5
2023-04-12T14:48:51.870Z,3
2023-04-12T14:50:51.970Z,3
2023-04-12T14:52:52.110Z,4
2023-04-12T14:54:52.218Z,5
2023-04-12T14:56:55.003Z,4
2023-04-12T14:58:52.436Z,3
2023-04-12T15:00:52.536Z,7
2023-04-12T15:02:53.068Z,5
2023-04-12T15:04:52.895Z,5
2023-04-12T15:06:52.983Z,3
2023-04-12T15:08:53.016Z,5
2023-04-12T15:10:53.125Z,5
2023-04-12T15:12:53.224Z,8
2023-04-12T15:14:53.356Z,3
2023-04-12T15:16:53.501Z,4
2023-04-12T15:18:53.630Z,2
2023-04-12T15:20:53.706Z,4
2023-04-12T15:22:53.802Z,3
2023-04-12T15:24:53.937Z,4
2023-04-12T15:26:54.030Z,4
2023-04-12T15:28:54.142Z,4
2023-04-12T15:30:54.258Z,4
2023-04-12T15:32:54.372Z,4
2023-04-12T15:34:54.509Z,5
2023-04-12T15:36:54.740Z,5
2023-04-12T15:38:54.693Z,3
2023-04-12T15:40:54.843Z,8
2023-04-12T15:42:54.933Z,5
2023-04-12T15:44:55.036Z,3
2023-04-12T15:47:09.685Z,4
2023-04-12T15:48:55.272Z,2
2023-04-12T15:50:55.331Z,3
2023-04-12T15:52:55.430Z,3
2023-04-12T15:54:55.510Z,5
2023-04-12T15:56:55.619Z,4
2023-04-12T15:58:55.944Z,5
2023-04-12T16:00:55.820Z,6
2023-04-12T16:02:56.331Z,4
2023-04-12T16:04:56.128Z,8
2023-04-12T16:06:56.229Z,3
2023-04-12T16:08:56.413Z,3
2023-04-12T16:10:56.350Z,4
2023-04-12T16:12:56.550Z,3
2023-04-12T16:14:56.533Z,5
2023-04-12T16:16:57.665Z,9
2023-04-12T16:18:57.158Z,9
2023-04-12T16:20:56.854Z,5
2023-04-12T16:22:56.959Z,7
2023-04-12T16:24:57.049Z,10
2023-04-12T16:26:57.176Z,12
2023-04-12T16:28:57.588Z,9
2023-04-12T16:30:57.404Z,11
2023-04-12T16:32:57.455Z,6
2023-04-12T16:34:57.520Z,6
2023-04-12T16:36:57.623Z,12
2023-04-12T16:38:57.903Z,8
2023-04-12T16:40:57.814Z,8
2023-04-12T16:42:57.921Z,6
2023-04-12T16:44:58.070Z,6
2023-04-12T16:46:58.149Z,7
2023-04-12T16:48:58.282Z,7
2023-04-12T16:50:58.305Z,5
2023-04-12T16:52:58.393Z,5
2023-04-12T16:54:58.492Z,13
2023-04-12T16:56:58.565Z,12
2023-04-12T16:58:58.666Z,11
2023-04-12T17:00:58.770Z,9
2023-04-12T17:02:58.897Z,9
2023-04-12T17:04:59.121Z,11
2023-04-12T17:06:59.132Z,10
2023-04-12T17:08:59.644Z,8
2023-04-12T17:10:59.237Z,9
2023-04-12T17:12:59.335Z,9
2023-04-12T17:14:59.435Z,11
2023-04-12T17:16:59.519Z,12
2023-04-12T17:20:59.727Z,8
2023-04-12T17:22:59.791Z,9
2023-04-12T17:24:59.888Z,9
2023-04-12T17:27:00.011Z,12
2023-04-12T17:29:00.112Z,11
2023-04-12T17:31:00.174Z,8
2023-04-12T17:33:00.358Z,9
2023-04-12T17:35:00.361Z,9
2023-04-12T17:37:00.431Z,9
2023-04-12T17:39:00.764Z,15
2023-04-12T17:41:00.605Z,15
2023-04-12T17:43:00.716Z,17
2023-04-12T17:47:32.645Z,30
2023-04-12T17:49:31.044Z,16
2023-04-12T17:51:31.232Z,21
2023-04-12T17:53:31.302Z,17
2023-04-12T17:55:31.413Z,15
2023-04-12T17:57:31.524Z,15
2023-04-12T17:59:31.641Z,14
2023-04-12T18:01:31.775Z,13
2023-04-12T18:03:31.995Z,13
2023-04-12T18:05:32.006Z,12
2023-04-12T18:07:32.118Z,12
2023-04-12T18:09:32.180Z,14
2023-04-12T18:11:32.320Z,15
2023-04-12T18:13:32.486Z,17
2023-04-12T18:15:32.567Z,12
2023-04-12T18:17:32.681Z,11
2023-04-12T18:19:32.787Z,9
2023-04-12T18:21:32.870Z,10
2023-04-12T18:23:32.989Z,16
2023-04-12T18:25:33.127Z,12
2023-04-12T18:27:33.248Z,9
2023-04-12T18:31:33.685Z,8
2023-04-12T18:33:33.540Z,6
2023-04-12T18:35:33.676Z,6
2023-04-12T18:39:33.874Z,7
2023-04-12T18:41:34.002Z,7
2023-04-12T18:43:34.120Z,7
2023-04-12T18:47:34.370Z,8
2023-04-12T18:49:34.447Z,7
2023-04-12T18:51:34.553Z,7
2023-04-12T18:53:34.693Z,7
2023-04-12T18:55:34.823Z,7
2023-04-12T18:57:34.914Z,7
2023-04-12T18:59:35.054Z,9
2023-04-12T19:01:35.345Z,8
2023-04-12T19:03:35.407Z,10
2023-04-12T19:05:35.343Z,14
2023-04-12T19:07:35.437Z,14
2023-04-12T19:09:35.546Z,12
2023-04-12T19:11:37.088Z,8
2023-04-12T19:13:35.784Z,8
2023-04-12T19:15:35.887Z,7
2023-04-12T19:17:36.112Z,7
2023-04-12T19:19:36.104Z,13
2023-04-12T19:21:36.195Z,11
2023-04-12T19:23:36.288Z,10
2023-04-12T19:25:36.406Z,10
2023-04-12T19:27:36.533Z,9
2023-04-12T19:29:36.625Z,7
2023-04-12T19:31:36.721Z,7
2023-04-12T19:33:36.807Z,8
2023-04-12T19:35:36.902Z,7
2023-04-12T19:37:37.001Z,6
2023-04-12T19:39:37.101Z,6
2023-04-12T19:41:37.224Z,11
2023-04-12T19:43:37.323Z,19
2023-04-12T19:45:37.418Z,9
2023-04-12T19:47:37.555Z,17
2023-04-12T19:49:37.631Z,25
2023-04-12T19:51:37.749Z,24
2023-04-12T19:53:37.841Z,21
2023-04-12T19:55:37.925Z,17
2023-04-12T19:57:38.059Z,14
2023-04-12T19:59:38.127Z,12
2023-04-12T20:01:38.327Z,11
2023-04-12T20:03:38.387Z,10
2023-04-12T20:05:38.463Z,10
2023-04-12T20:07:38.522Z,9
2023-04-12T20:09:38.608Z,8
2023-04-12T20:11:38.744Z,9
2023-04-12T20:13:38.833Z,9
2023-04-12T20:15:38.927Z,9
2023-04-12T20:17:39.043Z,10
2023-04-12T20:19:39.161Z,13
2023-04-12T20:21:39.268Z,15
2023-04-12T20:23:39.308Z,14
2023-04-12T20:25:39.417Z,14
2023-04-12T20:27:39.506Z,14
2023-04-12T20:29:39.581Z,15
2023-04-12T20:31:39.741Z,14
2023-04-12T20:33:39.780Z,14
2023-04-12T20:35:39.868Z,14
2023-04-12T20:37:40.000Z,15
2023-04-12T20:39:40.018Z,14
2023-04-12T20:41:40.129Z,21
2023-04-12T20:43:40.270Z,16
2023-04-12T20:45:40.324Z,25
2023-04-12T20:47:40.475Z,32
2023-04-12T20:49:40.510Z,27
2023-04-12T20:51:40.604Z,27
2023-04-12T20:53:40.700Z,19
2023-04-12T20:55:40.770Z,22
2023-04-12T20:57:40.890Z,21
2023-04-12T20:59:41.017Z,19
2023-04-12T21:01:41.097Z,19
2023-04-12T21:03:41.242Z,18
2023-04-12T21:05:41.205Z,16
2023-04-12T21:07:41.375Z,13
2023-04-12T21:09:41.390Z,13
2023-04-12T21:11:41.507Z,12
2023-04-12T21:13:41.573Z,14
2023-04-12T21:15:41.699Z,18
2023-04-12T21:17:41.829Z,10
2023-04-12T21:19:41.957Z,8
2023-04-12T21:21:41.951Z,9
2023-04-12T21:23:42.157Z,11
2023-04-12T21:25:42.148Z,13
2023-04-12T21:27:42.241Z,12
2023-04-12T21:29:42.336Z,11
2023-04-12T21:31:42.467Z,17
2023-04-12T21:33:42.533Z,18
2023-04-12T21:35:42.624Z,21
2023-04-12T21:37:42.715Z,20
2023-04-12T21:39:42.819Z,19
2023-04-12T21:41:42.915Z,22
2023-04-12T21:43:43.005Z,25
2023-04-12T21:45:43.128Z,24
2023-04-12T21:47:43.310Z,28
2023-04-12T21:49:43.295Z,30
2023-04-12T21:51:46.120Z,28
2023-04-12T21:53:43.467Z,30
2023-04-12T21:55:43.550Z,32
2023-04-12T21:57:43.648Z,34
2023-04-12T22:01:43.957Z,30
2023-04-12T22:03:44.097Z,29
2023-04-12T22:05:48.522Z,31
2023-04-12T22:07:44.107Z,25
2023-04-12T22:09:44.252Z,25
2023-04-12T22:11:44.295Z,23
2023-04-12T22:13:44.358Z,22
2023-04-12T22:15:44.454Z,21
2023-04-12T22:17:44.737Z,21
2023-04-12T22:19:44.605Z,20
2023-04-12T22:21:45.410Z,19
2023-04-12T22:23:44.806Z,17
2023-04-12T22:25:44.858Z,17
2023-04-12T22:27:44.946Z,14
2023-04-12T22:29:45.033Z,16
2023-04-12T22:31:45.168Z,16
2023-04-12T22:33:45.205Z,15
2023-04-12T22:35:45.405Z,16
2023-04-12T22:37:45.351Z,16
2023-04-12T22:39:45.445Z,18
2023-04-12T22:41:45.537Z,16
2023-04-12T22:43:45.772Z,16
2023-04-12T22:45:45.688Z,17
2023-04-12T22:47:45.865Z,17
2023-04-12T22:49:45.843Z,16
2023-04-12T22:51:45.929Z,14
2023-04-12T22:53:46.024Z,11
2023-04-12T22:55:46.117Z,10
2023-04-12T22:57:46.208Z,11
2023-04-12T22:59:46.299Z,10
2023-04-12T23:02:16.568Z,10
2023-04-12T23:04:16.541Z,10
2023-04-12T23:06:16.647Z,10
2023-04-12T23:08:16.752Z,10
2023-04-12T23:12:16.954Z,11
2023-04-12T23:14:17.092Z,13
2023-04-12T23:16:17.297Z,16
2023-04-12T23:18:17.332Z,16
2023-04-12T23:20:17.443Z,16
2023-04-12T23:22:17.587Z,16
2023-04-12T23:24:17.670Z,15
2023-04-12T23:26:17.781Z,15
2023-04-12T23:28:19.339Z,14
2023-04-12T23:30:18.063Z,15
2023-04-12T23:32:18.147Z,14
2023-04-12T23:34:18.267Z,13
2023-04-12T23:36:18.375Z,14
2023-04-12T23:38:18.478Z,14
2023-04-12T23:40:18.586Z,13
2023-04-12T23:42:18.721Z,14
2023-04-12T23:44:18.831Z,16
2023-04-12T23:48:19.153Z,15
2023-04-12T23:50:19.163Z,18
2023-04-12T23:52:19.322Z,15
2023-04-12T23:54:19.511Z,16
2023-04-12T23:56:19.520Z,15
2023-04-12T23:58:19.618Z,15
